Terminal Aerodrome Forecast
Issued by NWS

Home | Current Version | Previous Version | Text Only | Print | Product List | Glossary On
Versions: 1 2 3 4 5 6 7 8 9 10 11 12 13 14 15 16 17 18 19 20 21
000
FTUS46 KSEW 290805 AAA
TAFBLI
TAF AMD
KBLI 290805Z 2908/3006 13013KT 6SM -RA BR SCT028 OVC050
      TEMPO 2908/2912 13018G28KT BKN028 OVC050
     FM291200 11015G25KT P6SM -RA BKN015 OVC030
     FM291800 15015G25KT P6SM -SHRA BKN022 OVC050
     FM292100 17013KT P6SM VCSH BKN035 OVC050 PROB30 2921/3001 -SHRA
     FM300300 17009KT P6SM VCSH SCT035 BKN050 BKN200=

USA.gov is the U.S. government's official web portal to all federal, state and local government web resources and services.